sensor_id;sensor_type;location;lat;lon;timestamp;pressure;altitude;pressure_sealevel;temperature;humidity
71907;BME280;59781;52.090;5.030;2023-08-01T00:01:09;99835.16;;;19.01;100.00
71907;BME280;59781;52.090;5.030;2023-08-01T00:03:35;99860.28;;;17.15;100.00
71907;BME280;59781;52.090;5.030;2023-08-01T00:06:01;99863.72;;;17.22;100.00
71907;BME280;59781;52.090;5.030;2023-08-01T00:08:26;99857.31;;;17.05;100.00
71907;BME280;59781;52.090;5.030;2023-08-01T00:10:52;99860.72;;;17.87;100.00
71907;BME280;59781;52.090;5.030;2023-08-01T00:13:18;99841.94;;;18.65;100.00
71907;BME280;59781;52.090;5.030;2023-08-01T00:15:43;99833.75;;;18.81;100.00
71907;BME280;59781;52.090;5.030;2023-08-01T00:18:09;99837.56;;;18.80;100.00
71907;BME280;59781;52.090;5.030;2023-08-01T00:20:35;99853.56;;;16.94;100.00
71907;BME280;59781;52.090;5.030;2023-08-01T00:23:00;99846.31;;;16.88;100.00
71907;BME280;59781;52.090;5.030;2023-08-01T00:25:26;99845.25;;;16.89;100.00
71907;BME280;59781;52.090;5.030;2023-08-01T00:27:52;99845.25;;;17.01;100.00
71907;BME280;59781;52.090;5.030;2023-08-01T00:30:18;99834.28;;;16.72;100.00
71907;BME280;59781;52.090;5.030;2023-08-01T00:32:44;99832.94;;;17.10;100.00
71907;BME280;59781;52.090;5.030;2023-08-01T00:35:09;99828.56;;;16.62;100.00
71907;BME280;59781;52.090;5.030;2023-08-01T00:37:35;99822.94;;;16.75;100.00
71907;BME280;59781;52.090;5.030;2023-08-01T00:40:01;99831.03;;;16.52;100.00
71907;BME280;59781;52.090;5.030;2023-08-01T00:42:26;99815.56;;;17.23;100.00
71907;BME280;59781;52.090;5.030;2023-08-01T00:44:52;99798.41;;;17.10;100.00
71907;BME280;59781;52.090;5.030;2023-08-01T00:47:19;99797.22;;;17.58;100.00
71907;BME280;59781;52.090;5.030;2023-08-01T00:49:45;99794.81;;;17.33;100.00
71907;BME280;59781;52.090;5.030;2023-08-01T00:52:11;99784.09;;;17.15;100.00
71907;BME280;59781;52.090;5.030;2023-08-01T00:54:37;99776.25;;;17.70;100.00
71907;BME280;59781;52.090;5.030;2023-08-01T00:57:04;99784.28;;;17.37;100.00
71907;BME280;59781;52.090;5.030;2023-08-01T00:59:30;99782.16;;;17.27;100.00
71907;BME280;59781;52.090;5.030;2023-08-01T01:01:58;99781.06;;;17.40;100.00
71907;BME280;59781;52.090;5.030;2023-08-01T01:04:25;99794.06;;;16.86;100.00
71907;BME280;59781;52.090;5.030;2023-08-01T01:07:02;99787.47;;;16.82;100.00
71907;BME280;59781;52.090;5.030;2023-08-01T01:09:29;99789.41;;;17.22;100.00
71907;BME280;59781;52.090;5.030;2023-08-01T01:11:59;99778.81;;;17.37;100.00
71907;BME280;59781;52.090;5.030;2023-08-01T01:14:28;99778.69;;;17.84;100.00
71907;BME280;59781;52.090;5.030;2023-08-01T01:16:55;99772.53;;;17.76;100.00
71907;BME280;59781;52.090;5.030;2023-08-01T01:19:21;99768.84;;;17.83;100.00
71907;BME280;59781;52.090;5.030;2023-08-01T01:21:48;99771.00;;;17.81;100.00
71907;BME280;59781;52.090;5.030;2023-08-01T01:24:16;99782.38;;;17.66;100.00
71907;BME280;59781;52.090;5.030;2023-08-01T01:26:45;99780.63;;;17.60;100.00
71907;BME280;59781;52.090;5.030;2023-08-01T01:29:13;99771.81;;;17.12;100.00
71907;BME280;59781;52.090;5.030;2023-08-01T01:31:41;99777.88;;;16.79;100.00
71907;BME280;59781;52.090;5.030;2023-08-01T01:34:08;99779.97;;;16.66;100.00
71907;BME280;59781;52.090;5.030;2023-08-01T01:36:34;99782.81;;;16.47;100.00
71907;BME280;59781;52.090;5.030;2023-08-01T01:39:00;99779.75;;;17.02;100.00
71907;BME280;59781;52.090;5.030;2023-08-01T01:41:25;99782.13;;;16.75;100.00
71907;BME280;59781;52.090;5.030;2023-08-01T01:43:51;99771.63;;;17.59;100.00
71907;BME280;59781;52.090;5.030;2023-08-01T01:46:17;99766.19;;;17.59;100.00
71907;BME280;59781;52.090;5.030;2023-08-01T01:48:43;99766.72;;;17.85;100.00
71907;BME280;59781;52.090;5.030;2023-08-01T01:51:08;99761.66;;;17.76;100.00
71907;BME280;59781;52.090;5.030;2023-08-01T01:53:34;99769.84;;;17.65;100.00
71907;BME280;59781;52.090;5.030;2023-08-01T01:56:01;99751.97;;;18.31;100.00
71907;BME280;59781;52.090;5.030;2023-08-01T01:58:27;99756.34;;;18.49;100.00
71907;BME280;59781;52.090;5.030;2023-08-01T02:00:52;99753.09;;;18.35;100.00
71907;BME280;59781;52.090;5.030;2023-08-01T02:03:18;99762.19;;;18.07;100.00
71907;BME280;59781;52.090;5.030;2023-08-01T02:05:44;99768.59;;;17.56;100.00
71907;BME280;59781;52.090;5.030;2023-08-01T02:08:10;99754.22;;;17.89;100.00
71907;BME280;59781;52.090;5.030;2023-08-01T02:10:36;99759.84;;;17.82;100.00
71907;BME280;59781;52.090;5.030;2023-08-01T02:13:01;99759.06;;;18.32;100.00
71907;BME280;59781;52.090;5.030;2023-08-01T02:15:27;99760.03;;;17.92;100.00
71907;BME280;59781;52.090;5.030;2023-08-01T02:17:53;99758.56;;;18.01;100.00
71907;BME280;59781;52.090;5.030;2023-08-01T02:20:19;99751.94;;;17.81;100.00
71907;BME280;59781;52.090;5.030;2023-08-01T02:22:44;99758.81;;;17.03;100.00
71907;BME280;59781;52.090;5.030;2023-08-01T02:25:10;99754.00;;;18.07;100.00
71907;BME280;59781;52.090;5.030;2023-08-01T02:27:36;99754.00;;;18.07;100.00
71907;BME280;59781;52.090;5.030;2023-08-01T02:30:02;99752.88;;;18.20;100.00
71907;BME280;59781;52.090;5.030;2023-08-01T02:32:28;99764.78;;;18.30;100.00
71907;BME280;59781;52.090;5.030;2023-08-01T02:34:54;99755.75;;;18.47;100.00
71907;BME280;59781;52.090;5.030;2023-08-01T02:37:19;99747.00;;;18.45;100.00
71907;BME280;59781;52.090;5.030;2023-08-01T02:39:45;99758.97;;;18.44;100.00
71907;BME280;59781;52.090;5.030;2023-08-01T02:42:11;99741.97;;;18.70;100.00
71907;BME280;59781;52.090;5.030;2023-08-01T02:44:36;99748.16;;;18.49;100.00
71907;BME280;59781;52.090;5.030;2023-08-01T02:47:02;99746.00;;;18.68;100.00
71907;BME280;59781;52.090;5.030;2023-08-01T02:49:28;99745.91;;;18.62;100.00
71907;BME280;59781;52.090;5.030;2023-08-01T02:51:53;99755.56;;;17.86;100.00
71907;BME280;59781;52.090;5.030;2023-08-01T02:54:19;99756.50;;;18.25;100.00
71907;BME280;59781;52.090;5.030;2023-08-01T02:56:45;99750.88;;;18.49;100.00
71907;BME280;59781;52.090;5.030;2023-08-01T02:59:10;99737.34;;;18.92;100.00
71907;BME280;59781;52.090;5.030;2023-08-01T03:01:37;99741.69;;;18.38;100.00
71907;BME280;59781;52.090;5.030;2023-08-01T03:04:04;99752.63;;;18.04;100.00
71907;BME280;59781;52.090;5.030;2023-08-01T03:06:34;99761.19;;;17.68;100.00
71907;BME280;59781;52.090;5.030;2023-08-01T03:09:00;99768.94;;;17.31;100.00
71907;BME280;59781;52.090;5.030;2023-08-01T03:11:26;99764.59;;;17.46;100.00
71907;BME280;59781;52.090;5.030;2023-08-01T03:13:52;99788.59;;;17.21;100.00
71907;BME280;59781;52.090;5.030;2023-08-01T03:16:18;99774.91;;;16.92;100.00
71907;BME280;59781;52.090;5.030;2023-08-01T03:18:44;99775.97;;;16.80;100.00
71907;BME280;59781;52.090;5.030;2023-08-01T03:21:10;99783.69;;;16.83;100.00
71907;BME280;59781;52.090;5.030;2023-08-01T03:23:36;99778.91;;;16.90;100.00
71907;BME280;59781;52.090;5.030;2023-08-01T03:26:02;99777.25;;;17.01;100.00
71907;BME280;59781;52.090;5.030;2023-08-01T03:28:28;99771.00;;;16.88;100.00
71907;BME280;59781;52.090;5.030;2023-08-01T03:30:54;99773.25;;;16.80;100.00
71907;BME280;59781;52.090;5.030;2023-08-01T03:33:20;99778.53;;;17.22;100.00
71907;BME280;59781;52.090;5.030;2023-08-01T03:35:47;99776.53;;;17.05;100.00
71907;BME280;59781;52.090;5.030;2023-08-01T03:38:12;99762.00;;;17.11;100.00
71907;BME280;59781;52.090;5.030;2023-08-01T03:40:38;99765.78;;;16.99;100.00
71907;BME280;59781;52.090;5.030;2023-08-01T03:43:04;99769.78;;;17.08;100.00
71907;BME280;59781;52.090;5.030;2023-08-01T03:45:33;99769.34;;;17.11;100.00
71907;BME280;59781;52.090;5.030;2023-08-01T03:47:59;99772.88;;;17.11;100.00
71907;BME280;59781;52.090;5.030;2023-08-01T03:50:25;99777.72;;;17.21;100.00
71907;BME280;59781;52.090;5.030;2023-08-01T03:52:51;99775.16;;;17.43;100.00
71907;BME280;59781;52.090;5.030;2023-08-01T03:55:17;99781.22;;;17.33;100.00
71907;BME280;59781;52.090;5.030;2023-08-01T03:57:43;99781.03;;;17.52;100.00
71907;BME280;59781;52.090;5.030;2023-08-01T04:00:09;99786.56;;;17.57;100.00
71907;BME280;59781;52.090;5.030;2023-08-01T04:02:42;99784.88;;;17.27;100.00
71907;BME280;59781;52.090;5.030;2023-08-01T04:05:08;99789.25;;;17.68;100.00
71907;BME280;59781;52.090;5.030;2023-08-01T04:07:35;99783.94;;;17.73;100.00
71907;BME280;59781;52.090;5.030;2023-08-01T04:10:03;99785.25;;;17.59;100.00
71907;BME280;59781;52.090;5.030;2023-08-01T04:12:31;99775.22;;;17.48;100.00
71907;BME280;59781;52.090;5.030;2023-08-01T04:14:58;99769.28;;;17.91;100.00
71907;BME280;59781;52.090;5.030;2023-08-01T04:17:24;99769.13;;;18.48;100.00
71907;BME280;59781;52.090;5.030;2023-08-01T04:19:49;99770.75;;;17.99;100.00
71907;BME280;59781;52.090;5.030;2023-08-01T04:22:15;99780.94;;;17.46;100.00
71907;BME280;59781;52.090;5.030;2023-08-01T04:24:41;99779.97;;;17.12;100.00
71907;BME280;59781;52.090;5.030;2023-08-01T04:27:07;99782.75;;;17.69;100.00
71907;BME280;59781;52.090;5.030;2023-08-01T04:29:33;99785.16;;;17.14;100.00
71907;BME280;59781;52.090;5.030;2023-08-01T04:31:58;99766.16;;;18.67;100.00
71907;BME280;59781;52.090;5.030;2023-08-01T04:34:24;99761.91;;;18.92;100.00
71907;BME280;59781;52.090;5.030;2023-08-01T04:36:49;99757.00;;;18.95;100.00
71907;BME280;59781;52.090;5.030;2023-08-01T04:39:15;99753.72;;;18.92;100.00
71907;BME280;59781;52.090;5.030;2023-08-01T04:41:41;99747.19;;;18.94;100.00
71907;BME280;59781;52.090;5.030;2023-08-01T04:44:06;99746.44;;;18.98;100.00
71907;BME280;59781;52.090;5.030;2023-08-01T04:46:32;99760.78;;;18.72;100.00
71907;BME280;59781;52.090;5.030;2023-08-01T04:48:58;99747.88;;;18.67;100.00
71907;BME280;59781;52.090;5.030;2023-08-01T04:51:24;99756.13;;;18.89;100.00
71907;BME280;59781;52.090;5.030;2023-08-01T04:53:51;99749.16;;;18.98;100.00
71907;BME280;59781;52.090;5.030;2023-08-01T04:56:16;99755.44;;;18.99;100.00
71907;BME280;59781;52.090;5.030;2023-08-01T04:58:42;99752.66;;;18.77;100.00
71907;BME280;59781;52.090;5.030;2023-08-01T05:01:08;99749.03;;;18.88;100.00
71907;BME280;59781;52.090;5.030;2023-08-01T05:03:34;99755.47;;;18.82;100.00
71907;BME280;59781;52.090;5.030;2023-08-01T05:05:59;99755.19;;;19.00;100.00
71907;BME280;59781;52.090;5.030;2023-08-01T05:08:25;99762.84;;;18.81;100.00
71907;BME280;59781;52.090;5.030;2023-08-01T05:10:50;99761.66;;;18.77;100.00
71907;BME280;59781;52.090;5.030;2023-08-01T05:13:16;99762.47;;;18.95;100.00
71907;BME280;59781;52.090;5.030;2023-08-01T05:15:45;99775.53;;;17.63;100.00
71907;BME280;59781;52.090;5.030;2023-08-01T05:18:13;99781.41;;;17.84;100.00
71907;BME280;59781;52.090;5.030;2023-08-01T05:20:40;99783.41;;;17.48;100.00
71907;BME280;59781;52.090;5.030;2023-08-01T05:23:06;99788.50;;;17.44;100.00
71907;BME280;59781;52.090;5.030;2023-08-01T05:25:32;99787.34;;;17.97;100.00
71907;BME280;59781;52.090;5.030;2023-08-01T05:27:57;99784.13;;;17.84;100.00
71907;BME280;59781;52.090;5.030;2023-08-01T05:30:24;99793.75;;;18.20;100.00
71907;BME280;59781;52.090;5.030;2023-08-01T05:32:50;99790.56;;;17.26;100.00
71907;BME280;59781;52.090;5.030;2023-08-01T05:35:17;99784.44;;;17.87;100.00
71907;BME280;59781;52.090;5.030;2023-08-01T05:37:42;99779.22;;;18.14;100.00
71907;BME280;59781;52.090;5.030;2023-08-01T05:40:09;99773.91;;;18.08;100.00
71907;BME280;59781;52.090;5.030;2023-08-01T05:42:35;99783.03;;;18.30;100.00
71907;BME280;59781;52.090;5.030;2023-08-01T05:45:01;99774.75;;;18.25;100.00
71907;BME280;59781;52.090;5.030;2023-08-01T05:47:27;99774.16;;;18.56;100.00
71907;BME280;59781;52.090;5.030;2023-08-01T05:49:52;99774.41;;;18.04;100.00
71907;BME280;59781;52.090;5.030;2023-08-01T05:52:18;99786.91;;;18.34;100.00
71907;BME280;59781;52.090;5.030;2023-08-01T05:54:44;99788.38;;;17.51;100.00
71907;BME280;59781;52.090;5.030;2023-08-01T05:57:09;99792.66;;;18.04;100.00
71907;BME280;59781;52.090;5.030;2023-08-01T05:59:35;99789.59;;;18.00;100.00
71907;BME280;59781;52.090;5.030;2023-08-01T06:02:02;99794.72;;;18.64;100.00
71907;BME280;59781;52.090;5.030;2023-08-01T06:04:28;99786.59;;;19.03;100.00
71907;BME280;59781;52.090;5.030;2023-08-01T06:06:53;99779.19;;;18.98;100.00
71907;BME280;59781;52.090;5.030;2023-08-01T06:09:19;99782.47;;;19.22;100.00
71907;BME280;59781;52.090;5.030;2023-08-01T06:11:45;99778.56;;;19.57;100.00
71907;BME280;59781;52.090;5.030;2023-08-01T06:14:11;99784.72;;;19.69;100.00
71907;BME280;59781;52.090;5.030;2023-08-01T06:16:36;99782.13;;;20.11;100.00
71907;BME280;59781;52.090;5.030;2023-08-01T06:19:02;99780.69;;;19.11;100.00
71907;BME280;59781;52.090;5.030;2023-08-01T06:21:28;99790.03;;;18.76;100.00
71907;BME280;59781;52.090;5.030;2023-08-01T06:23:54;99789.69;;;19.55;100.00
71907;BME280;59781;52.090;5.030;2023-08-01T06:26:19;99797.69;;;19.57;100.00
71907;BME280;59781;52.090;5.030;2023-08-01T06:28:45;99797.44;;;19.58;100.00
71907;BME280;59781;52.090;5.030;2023-08-01T06:31:11;99796.38;;;19.20;100.00
71907;BME280;59781;52.090;5.030;2023-08-01T06:33:36;99797.69;;;20.11;100.00
71907;BME280;59781;52.090;5.030;2023-08-01T06:36:02;99791.84;;;20.61;100.00
71907;BME280;59781;52.090;5.030;2023-08-01T06:38:28;99807.91;;;19.93;100.00
71907;BME280;59781;52.090;5.030;2023-08-01T06:40:54;99796.75;;;21.01;100.00
71907;BME280;59781;52.090;5.030;2023-08-01T06:43:19;99799.47;;;20.96;100.00
71907;BME280;59781;52.090;5.030;2023-08-01T06:45:45;99788.81;;;21.57;100.00
71907;BME280;59781;52.090;5.030;2023-08-01T06:48:11;99794.16;;;20.79;100.00
71907;BME280;59781;52.090;5.030;2023-08-01T06:50:36;99794.50;;;20.51;100.00
71907;BME280;59781;52.090;5.030;2023-08-01T06:53:02;99796.75;;;19.73;100.00
71907;BME280;59781;52.090;5.030;2023-08-01T06:55:28;99810.03;;;19.42;100.00
71907;BME280;59781;52.090;5.030;2023-08-01T06:57:53;99811.81;;;19.32;100.00
71907;BME280;59781;52.090;5.030;2023-08-01T07:00:19;99805.63;;;19.85;100.00
71907;BME280;59781;52.090;5.030;2023-08-01T07:02:45;99796.22;;;20.30;100.00
71907;BME280;59781;52.090;5.030;2023-08-01T07:05:10;99802.47;;;20.25;100.00
71907;BME280;59781;52.090;5.030;2023-08-01T07:07:36;99793.41;;;21.36;100.00
71907;BME280;59781;52.090;5.030;2023-08-01T07:10:02;99799.16;;;20.87;100.00
71907;BME280;59781;52.090;5.030;2023-08-01T07:12:27;99815.84;;;20.54;100.00
71907;BME280;59781;52.090;5.030;2023-08-01T07:14:53;99822.53;;;19.16;100.00
71907;BME280;59781;52.090;5.030;2023-08-01T07:17:19;99829.19;;;18.20;100.00
71907;BME280;59781;52.090;5.030;2023-08-01T07:19:44;99818.94;;;18.44;100.00
71907;BME280;59781;52.090;5.030;2023-08-01T07:22:10;99828.47;;;18.91;100.00
71907;BME280;59781;52.090;5.030;2023-08-01T07:24:36;99821.06;;;19.96;100.00
71907;BME280;59781;52.090;5.030;2023-08-01T07:27:01;99796.28;;;21.77;100.00
71907;BME280;59781;52.090;5.030;2023-08-01T07:29:27;99805.69;;;22.07;100.00
71907;BME280;59781;52.090;5.030;2023-08-01T07:31:53;99812.81;;;21.30;100.00
71907;BME280;59781;52.090;5.030;2023-08-01T07:34:22;99812.00;;;22.38;100.00
71907;BME280;59781;52.090;5.030;2023-08-01T07:36:49;99813.66;;;22.13;100.00
71907;BME280;59781;52.090;5.030;2023-08-01T07:39:16;99806.44;;;21.87;100.00
71907;BME280;59781;52.090;5.030;2023-08-01T07:41:42;99805.13;;;22.10;100.00
71907;BME280;59781;52.090;5.030;2023-08-01T07:44:08;99806.44;;;21.92;100.00
71907;BME280;59781;52.090;5.030;2023-08-01T07:46:33;99810.00;;;21.92;100.00
71907;BME280;59781;52.090;5.030;2023-08-01T07:48:59;99810.09;;;22.43;100.00
71907;BME280;59781;52.090;5.030;2023-08-01T07:51:25;99800.22;;;22.42;100.00
71907;BME280;59781;52.090;5.030;2023-08-01T07:53:53;99814.47;;;22.39;100.00
71907;BME280;59781;52.090;5.030;2023-08-01T07:56:20;99805.72;;;22.42;100.00
71907;BME280;59781;52.090;5.030;2023-08-01T07:58:46;99807.28;;;23.79;100.00
71907;BME280;59781;52.090;5.030;2023-08-01T08:01:12;99810.63;;;22.60;100.00
71907;BME280;59781;52.090;5.030;2023-08-01T08:03:38;99813.63;;;22.08;100.00
71907;BME280;59781;52.090;5.030;2023-08-01T08:06:03;99816.81;;;24.02;100.00
71907;BME280;59781;52.090;5.030;2023-08-01T08:08:31;99801.16;;;24.95;100.00
71907;BME280;59781;52.090;5.030;2023-08-01T08:10:59;99830.75;;;23.66;100.00
71907;BME280;59781;52.090;5.030;2023-08-01T08:13:26;99828.25;;;24.19;100.00
71907;BME280;59781;52.090;5.030;2023-08-01T08:15:55;99828.53;;;23.58;100.00
71907;BME280;59781;52.090;5.030;2023-08-01T08:18:22;99826.00;;;22.87;100.00
71907;BME280;59781;52.090;5.030;2023-08-01T08:20:49;99832.59;;;23.01;100.00
71907;BME280;59781;52.090;5.030;2023-08-01T08:23:14;99827.31;;;23.25;100.00
71907;BME280;59781;52.090;5.030;2023-08-01T08:25:43;99827.38;;;22.69;100.00
71907;BME280;59781;52.090;5.030;2023-08-01T08:28:13;99833.22;;;21.59;100.00
71907;BME280;59781;52.090;5.030;2023-08-01T08:30:39;99851.69;;;20.89;100.00
71907;BME280;59781;52.090;5.030;2023-08-01T08:33:05;99836.91;;;21.28;100.00
71907;BME280;59781;52.090;5.030;2023-08-01T08:35:33;99829.03;;;22.24;100.00
71907;BME280;59781;52.090;5.030;2023-08-01T08:38:03;99829.63;;;23.72;100.00
71907;BME280;59781;52.090;5.030;2023-08-01T08:40:32;99838.84;;;23.22;100.00
71907;BME280;59781;52.090;5.030;2023-08-01T08:43:02;99827.66;;;22.68;100.00
71907;BME280;59781;52.090;5.030;2023-08-01T08:45:34;99834.19;;;21.33;100.00
71907;BME280;59781;52.090;5.030;2023-08-01T08:48:05;99844.81;;;21.24;100.00
71907;BME280;59781;52.090;5.030;2023-08-01T08:50:37;99841.09;;;22.89;100.00
71907;BME280;59781;52.090;5.030;2023-08-01T08:53:05;99857.28;;;22.45;100.00
71907;BME280;59781;52.090;5.030;2023-08-01T08:55:38;99836.88;;;22.00;100.00
71907;BME280;59781;52.090;5.030;2023-08-01T08:58:05;99851.53;;;22.82;100.00
71907;BME280;59781;52.090;5.030;2023-08-01T09:00:31;99850.66;;;21.38;100.00
71907;BME280;59781;52.090;5.030;2023-08-01T09:02:57;99851.56;;;21.11;100.00
71907;BME280;59781;52.090;5.030;2023-08-01T09:05:27;99859.09;;;21.94;100.00
71907;BME280;59781;52.090;5.030;2023-08-01T09:08:04;99854.81;;;21.45;100.00
71907;BME280;59781;52.090;5.030;2023-08-01T09:10:35;99856.09;;;21.33;100.00
71907;BME280;59781;52.090;5.030;2023-08-01T09:13:01;99865.41;;;21.99;100.00
71907;BME280;59781;52.090;5.030;2023-08-01T09:15:27;99848.75;;;22.16;100.00
71907;BME280;59781;52.090;5.030;2023-08-01T09:17:55;99858.66;;;22.43;100.00
71907;BME280;59781;52.090;5.030;2023-08-01T09:20:28;99853.59;;;23.62;100.00
71907;BME280;59781;52.090;5.030;2023-08-01T09:22:55;99863.59;;;22.76;100.00
71907;BME280;59781;52.090;5.030;2023-08-01T09:25:31;99863.59;;;23.07;100.00
71907;BME280;59781;52.090;5.030;2023-08-01T09:28:00;99873.28;;;23.84;100.00
71907;BME280;59781;52.090;5.030;2023-08-01T09:30:26;99874.19;;;23.59;100.00
71907;BME280;59781;52.090;5.030;2023-08-01T09:32:54;99864.53;;;24.21;100.00
71907;BME280;59781;52.090;5.030;2023-08-01T09:35:21;99870.75;;;23.03;100.00
71907;BME280;59781;52.090;5.030;2023-08-01T09:37:48;99875.34;;;22.11;100.00
71907;BME280;59781;52.090;5.030;2023-08-01T09:40:14;99884.13;;;21.50;100.00
71907;BME280;59781;52.090;5.030;2023-08-01T09:42:42;99880.34;;;23.15;100.00
71907;BME280;59781;52.090;5.030;2023-08-01T09:45:17;99886.75;;;24.40;100.00
71907;BME280;59781;52.090;5.030;2023-08-01T09:47:44;99868.47;;;25.17;100.00
71907;BME280;59781;52.090;5.030;2023-08-01T09:50:12;99871.31;;;24.78;100.00
71907;BME280;59781;52.090;5.030;2023-08-01T09:52:45;99880.28;;;24.11;100.00
71907;BME280;59781;52.090;5.030;2023-08-01T09:55:20;99892.16;;;23.16;100.00
71907;BME280;59781;52.090;5.030;2023-08-01T09:57:58;99884.44;;;23.33;100.00
71907;BME280;59781;52.090;5.030;2023-08-01T10:00:29;99874.34;;;23.88;100.00
71907;BME280;59781;52.090;5.030;2023-08-01T10:02:59;99899.19;;;23.58;100.00
71907;BME280;59781;52.090;5.030;2023-08-01T10:05:29;99888.91;;;23.89;100.00
71907;BME280;59781;52.090;5.030;2023-08-01T10:08:00;99899.56;;;23.31;100.00
71907;BME280;59781;52.090;5.030;2023-08-01T10:10:28;99900.59;;;23.45;100.00
71907;BME280;59781;52.090;5.030;2023-08-01T10:12:56;99901.84;;;24.82;100.00
71907;BME280;59781;52.090;5.030;2023-08-01T10:15:25;99898.50;;;23.01;100.00
71907;BME280;59781;52.090;5.030;2023-08-01T10:17:52;99915.41;;;22.22;100.00
71907;BME280;59781;52.090;5.030;2023-08-01T10:20:18;99914.66;;;22.62;100.00
71907;BME280;59781;52.090;5.030;2023-08-01T10:22:49;99919.94;;;24.54;100.00
71907;BME280;59781;52.090;5.030;2023-08-01T10:25:17;99915.47;;;24.19;100.00
71907;BME280;59781;52.090;5.030;2023-08-01T10:27:45;99916.94;;;24.50;100.00
71907;BME280;59781;52.090;5.030;2023-08-01T10:30:26;99908.81;;;25.32;100.00
71907;BME280;59781;52.090;5.030;2023-08-01T10:32:55;99914.69;;;25.79;100.00
71907;BME280;59781;52.090;5.030;2023-08-01T10:35:35;99909.69;;;23.30;100.00
71907;BME280;59781;52.090;5.030;2023-08-01T10:38:11;99911.38;;;24.11;100.00
71907;BME280;59781;52.090;5.030;2023-08-01T10:40:40;99909.38;;;26.06;100.00
71907;BME280;59781;52.090;5.030;2023-08-01T10:43:24;99919.88;;;24.15;100.00
71907;BME280;59781;52.090;5.030;2023-08-01T10:46:08;99914.69;;;22.82;100.00
71907;BME280;59781;52.090;5.030;2023-08-01T10:48:33;99920.59;;;22.18;100.00
71907;BME280;59781;52.090;5.030;2023-08-01T10:50:59;99933.28;;;21.25;100.00
71907;BME280;59781;52.090;5.030;2023-08-01T10:53:38;99926.47;;;21.32;100.00
71907;BME280;59781;52.090;5.030;2023-08-01T10:56:04;99933.50;;;21.18;100.00
71907;BME280;59781;52.090;5.030;2023-08-01T10:58:30;99940.06;;;21.17;100.00
71907;BME280;59781;52.090;5.030;2023-08-01T11:01:00;99935.72;;;22.31;100.00
71907;BME280;59781;52.090;5.030;2023-08-01T11:03:36;99936.28;;;23.81;100.00
71907;BME280;59781;52.090;5.030;2023-08-01T11:06:03;99926.03;;;24.85;100.00
71907;BME280;59781;52.090;5.030;2023-08-01T11:08:38;99932.72;;;24.79;100.00
71907;BME280;59781;52.090;5.030;2023-08-01T11:11:08;99928.69;;;24.95;100.00
71907;BME280;59781;52.090;5.030;2023-08-01T11:13:37;99939.63;;;23.37;100.00
71907;BME280;59781;52.090;5.030;2023-08-01T11:16:03;99942.38;;;22.60;100.00
71907;BME280;59781;52.090;5.030;2023-08-01T11:18:41;99943.78;;;22.73;100.00
71907;BME280;59781;52.090;5.030;2023-08-01T11:21:08;99943.53;;;23.21;100.00
71907;BME280;59781;52.090;5.030;2023-08-01T11:23:33;99943.78;;;23.24;100.00
71907;BME280;59781;52.090;5.030;2023-08-01T11:25:59;99947.03;;;23.46;100.00
71907;BME280;59781;52.090;5.030;2023-08-01T11:28:25;99952.59;;;24.71;100.00
71907;BME280;59781;52.090;5.030;2023-08-01T11:30:50;99950.72;;;25.00;100.00
71907;BME280;59781;52.090;5.030;2023-08-01T11:35:54;99947.59;;;25.70;100.00
71907;BME280;59781;52.090;5.030;2023-08-01T11:38:23;99960.78;;;25.20;100.00
71907;BME280;59781;52.090;5.030;2023-08-01T11:40:52;99958.03;;;23.52;100.00
71907;BME280;59781;52.090;5.030;2023-08-01T11:43:18;99953.91;;;23.39;100.00
71907;BME280;59781;52.090;5.030;2023-08-01T11:45:54;99964.06;;;22.77;100.00
71907;BME280;59781;52.090;5.030;2023-08-01T11:48:23;99973.19;;;24.29;100.00
71907;BME280;59781;52.090;5.030;2023-08-01T11:50:49;99957.78;;;25.69;100.00
71907;BME280;59781;52.090;5.030;2023-08-01T11:53:22;99957.81;;;25.40;92.17
71907;BME280;59781;52.090;5.030;2023-08-01T11:55:49;99966.16;;;24.57;100.00
71907;BME280;59781;52.090;5.030;2023-08-01T11:58:47;99968.47;;;23.39;100.00
71907;BME280;59781;52.090;5.030;2023-08-01T12:01:13;99976.53;;;22.07;100.00
71907;BME280;59781;52.090;5.030;2023-08-01T12:03:46;99975.84;;;22.57;100.00
71907;BME280;59781;52.090;5.030;2023-08-01T12:06:18;99981.91;;;22.80;100.00
71907;BME280;59781;52.090;5.030;2023-08-01T12:08:50;99986.47;;;22.28;100.00
71907;BME280;59781;52.090;5.030;2023-08-01T12:11:26;99985.50;;;22.75;100.00
71907;BME280;59781;52.090;5.030;2023-08-01T12:14:13;99975.28;;;23.93;100.00
71907;BME280;59781;52.090;5.030;2023-08-01T12:16:45;99977.44;;;24.01;100.00
71907;BME280;59781;52.090;5.030;2023-08-01T12:19:18;99975.97;;;25.12;99.94
71907;BME280;59781;52.090;5.030;2023-08-01T12:21:45;99981.75;;;25.45;100.00
71907;BME280;59781;52.090;5.030;2023-08-01T12:24:11;99983.81;;;25.87;93.17
71907;BME280;59781;52.090;5.030;2023-08-01T12:26:37;99981.13;;;26.25;91.58
71907;BME280;59781;52.090;5.030;2023-08-01T12:29:03;99996.38;;;25.11;92.57
71907;BME280;59781;52.090;5.030;2023-08-01T12:31:28;99989.19;;;25.15;93.75
71907;BME280;59781;52.090;5.030;2023-08-01T12:33:54;99985.69;;;23.96;95.99
71907;BME280;59781;52.090;5.030;2023-08-01T12:36:21;99996.44;;;23.87;100.00
71907;BME280;59781;52.090;5.030;2023-08-01T12:38:46;99991.88;;;23.01;100.00
71907;BME280;59781;52.090;5.030;2023-08-01T12:41:12;100007.25;;;23.07;100.00
71907;BME280;59781;52.090;5.030;2023-08-01T12:43:38;100012.72;;;22.97;100.00
71907;BME280;59781;52.090;5.030;2023-08-01T12:46:04;100003.69;;;22.92;100.00
71907;BME280;59781;52.090;5.030;2023-08-01T12:48:30;100004.44;;;22.77;100.00
71907;BME280;59781;52.090;5.030;2023-08-01T12:50:56;100008.34;;;23.37;100.00
71907;BME280;59781;52.090;5.030;2023-08-01T12:53:22;100002.41;;;24.15;100.00